sensor_id;sensor_type;location;lat;lon;timestamp;P1;durP1;ratioP1;P2;durP2;ratioP2
41141;SDS011;26882;0.000;0.000;2022-08-11T00:00:09;4.90;;;3.00;;
41141;SDS011;26882;0.000;0.000;2022-08-11T00:03:05;6.40;;;3.40;;
41141;SDS011;26882;0.000;0.000;2022-08-11T00:05:44;5.50;;;3.10;;
41141;SDS011;26882;0.000;0.000;2022-08-11T00:08:23;6.60;;;3.20;;
41141;SDS011;26882;0.000;0.000;2022-08-11T00:10:56;5.90;;;3.00;;
41141;SDS011;26882;0.000;0.000;2022-08-11T00:16:10;5.90;;;3.20;;
41141;SDS011;26882;0.000;0.000;2022-08-11T00:18:44;4.60;;;2.90;;
41141;SDS011;26882;0.000;0.000;2022-08-11T00:21:15;5.20;;;2.90;;
41141;SDS011;26882;0.000;0.000;2022-08-11T00:23:53;5.90;;;3.60;;
41141;SDS011;26882;0.000;0.000;2022-08-11T00:26:25;6.00;;;3.20;;
41141;SDS011;26882;0.000;0.000;2022-08-11T00:28:56;5.40;;;3.00;;
41141;SDS011;26882;0.000;0.000;2022-08-11T00:31:37;6.80;;;3.60;;
41141;SDS011;26882;0.000;0.000;2022-08-11T00:34:13;5.30;;;3.10;;
41141;SDS011;26882;0.000;0.000;2022-08-11T00:36:49;5.80;;;3.40;;
41141;SDS011;26882;0.000;0.000;2022-08-11T00:39:21;6.10;;;3.30;;
41141;SDS011;26882;0.000;0.000;2022-08-11T00:42:06;4.90;;;3.10;;
41141;SDS011;26882;0.000;0.000;2022-08-11T00:44:53;5.30;;;3.30;;
41141;SDS011;26882;0.000;0.000;2022-08-11T00:47:38;4.70;;;3.00;;
41141;SDS011;26882;0.000;0.000;2022-08-11T00:50:16;5.70;;;2.90;;
41141;SDS011;26882;0.000;0.000;2022-08-11T00:53:04;5.70;;;3.30;;
41141;SDS011;26882;0.000;0.000;2022-08-11T00:58:58;5.70;;;3.20;;
41141;SDS011;26882;0.000;0.000;2022-08-11T01:01:56;5.50;;;3.40;;
41141;SDS011;26882;0.000;0.000;2022-08-11T01:10:50;4.90;;;3.30;;
41141;SDS011;26882;0.000;0.000;2022-08-11T01:13:41;5.60;;;3.10;;
41141;SDS011;26882;0.000;0.000;2022-08-11T01:16:32;4.30;;;2.80;;
41141;SDS011;26882;0.000;0.000;2022-08-11T01:22:24;5.30;;;3.30;;
41141;SDS011;26882;0.000;0.000;2022-08-11T01:28:26;6.00;;;3.20;;
41141;SDS011;26882;0.000;0.000;2022-08-11T01:31:36;4.90;;;3.20;;
41141;SDS011;26882;0.000;0.000;2022-08-11T01:40:55;6.30;;;3.20;;
41141;SDS011;26882;0.000;0.000;2022-08-11T01:44:11;4.60;;;2.90;;
41141;SDS011;26882;0.000;0.000;2022-08-11T01:47:12;4.70;;;3.00;;
41141;SDS011;26882;0.000;0.000;2022-08-11T01:50:11;4.20;;;2.60;;
41141;SDS011;26882;0.000;0.000;2022-08-11T01:53:01;4.60;;;2.90;;
41141;SDS011;26882;0.000;0.000;2022-08-11T01:55:36;4.40;;;2.40;;
41141;SDS011;26882;0.000;0.000;2022-08-11T01:58:14;4.50;;;2.80;;
41141;SDS011;26882;0.000;0.000;2022-08-11T02:00:50;5.20;;;2.70;;
41141;SDS011;26882;0.000;0.000;2022-08-11T02:03:26;5.00;;;2.80;;
41141;SDS011;26882;0.000;0.000;2022-08-11T02:06:04;5.20;;;3.20;;
41141;SDS011;26882;0.000;0.000;2022-08-11T02:09:10;6.40;;;3.80;;
41141;SDS011;26882;0.000;0.000;2022-08-11T02:11:43;5.40;;;3.00;;
41141;SDS011;26882;0.000;0.000;2022-08-11T02:14:20;5.10;;;3.10;;
41141;SDS011;26882;0.000;0.000;2022-08-11T02:17:16;4.90;;;2.90;;
41141;SDS011;26882;0.000;0.000;2022-08-11T02:19:56;4.00;;;2.70;;
41141;SDS011;26882;0.000;0.000;2022-08-11T02:22:53;4.60;;;2.70;;
41141;SDS011;26882;0.000;0.000;2022-08-11T02:25:45;4.50;;;3.00;;
41141;SDS011;26882;0.000;0.000;2022-08-11T02:28:22;5.20;;;2.80;;
41141;SDS011;26882;0.000;0.000;2022-08-11T02:31:06;4.80;;;2.70;;
41141;SDS011;26882;0.000;0.000;2022-08-11T02:33:59;5.00;;;2.70;;
41141;SDS011;26882;0.000;0.000;2022-08-11T02:36:37;5.60;;;2.80;;
41141;SDS011;26882;0.000;0.000;2022-08-11T02:39:12;4.70;;;2.90;;
41141;SDS011;26882;0.000;0.000;2022-08-11T02:41:49;4.40;;;2.80;;
41141;SDS011;26882;0.000;0.000;2022-08-11T02:44:47;5.20;;;3.00;;
41141;SDS011;26882;0.000;0.000;2022-08-11T02:47:30;4.50;;;2.60;;
41141;SDS011;26882;0.000;0.000;2022-08-11T02:50:14;4.40;;;2.70;;
41141;SDS011;26882;0.000;0.000;2022-08-11T02:52:56;5.00;;;3.10;;
41141;SDS011;26882;0.000;0.000;2022-08-11T02:55:31;5.60;;;3.20;;
41141;SDS011;26882;0.000;0.000;2022-08-11T02:58:13;4.50;;;2.70;;
41141;SDS011;26882;0.000;0.000;2022-08-11T03:00:52;4.20;;;2.40;;
41141;SDS011;26882;0.000;0.000;2022-08-11T03:03:29;5.50;;;2.90;;
41141;SDS011;26882;0.000;0.000;2022-08-11T03:06:10;4.60;;;2.50;;
41141;SDS011;26882;0.000;0.000;2022-08-11T03:08:52;5.70;;;2.60;;
41141;SDS011;26882;0.000;0.000;2022-08-11T03:11:49;4.30;;;2.60;;
41141;SDS011;26882;0.000;0.000;2022-08-11T03:14:46;5.50;;;2.90;;
41141;SDS011;26882;0.000;0.000;2022-08-11T03:17:39;4.10;;;2.60;;
41141;SDS011;26882;0.000;0.000;2022-08-11T03:20:25;5.20;;;2.80;;
41141;SDS011;26882;0.000;0.000;2022-08-11T03:23:02;4.80;;;2.60;;
41141;SDS011;26882;0.000;0.000;2022-08-11T03:25:44;5.10;;;3.10;;
41141;SDS011;26882;0.000;0.000;2022-08-11T03:28:23;5.00;;;2.70;;
41141;SDS011;26882;0.000;0.000;2022-08-11T03:31:07;4.60;;;2.70;;
41141;SDS011;26882;0.000;0.000;2022-08-11T03:33:42;4.90;;;2.60;;
41141;SDS011;26882;0.000;0.000;2022-08-11T03:40:10;5.60;;;2.40;;
41141;SDS011;26882;0.000;0.000;2022-08-11T03:42:48;4.30;;;2.60;;
41141;SDS011;26882;0.000;0.000;2022-08-11T03:45:24;4.80;;;2.80;;
41141;SDS011;26882;0.000;0.000;2022-08-11T03:48:16;5.20;;;3.00;;
41141;SDS011;26882;0.000;0.000;2022-08-11T03:50:56;4.50;;;2.30;;
41141;SDS011;26882;0.000;0.000;2022-08-11T03:53:53;4.60;;;2.80;;
41141;SDS011;26882;0.000;0.000;2022-08-11T04:00:03;5.00;;;2.50;;
41141;SDS011;26882;0.000;0.000;2022-08-11T04:03:10;5.00;;;2.60;;
41141;SDS011;26882;0.000;0.000;2022-08-11T04:06:21;5.80;;;2.50;;
41141;SDS011;26882;0.000;0.000;2022-08-11T04:12:16;4.90;;;2.70;;
41141;SDS011;26882;0.000;0.000;2022-08-11T04:15:30;6.30;;;2.80;;
41141;SDS011;26882;0.000;0.000;2022-08-11T04:18:52;5.50;;;2.90;;
41141;SDS011;26882;0.000;0.000;2022-08-11T04:27:41;7.30;;;3.00;;
41141;SDS011;26882;0.000;0.000;2022-08-11T04:30:17;6.90;;;3.20;;
41141;SDS011;26882;0.000;0.000;2022-08-11T04:33:09;9.50;;;3.70;;
41141;SDS011;26882;0.000;0.000;2022-08-11T04:38:48;8.80;;;3.50;;
41141;SDS011;26882;0.000;0.000;2022-08-11T04:41:39;9.50;;;4.00;;
41141;SDS011;26882;0.000;0.000;2022-08-11T04:44:50;10.50;;;3.80;;
41141;SDS011;26882;0.000;0.000;2022-08-11T04:47:38;18.50;;;4.50;;
41141;SDS011;26882;0.000;0.000;2022-08-11T04:50:38;13.90;;;4.60;;
41141;SDS011;26882;0.000;0.000;2022-08-11T04:53:44;13.90;;;4.50;;
41141;SDS011;26882;0.000;0.000;2022-08-11T04:56:37;10.20;;;4.40;;
41141;SDS011;26882;0.000;0.000;2022-08-11T05:00:02;13.30;;;4.50;;
41141;SDS011;26882;0.000;0.000;2022-08-11T05:03:25;9.60;;;4.20;;
41141;SDS011;26882;0.000;0.000;2022-08-11T05:06:27;12.20;;;4.50;;
41141;SDS011;26882;0.000;0.000;2022-08-11T05:09:12;16.10;;;4.30;;
41141;SDS011;26882;0.000;0.000;2022-08-11T05:12:11;12.70;;;4.70;;
41141;SDS011;26882;0.000;0.000;2022-08-11T05:14:49;11.10;;;4.00;;
41141;SDS011;26882;0.000;0.000;2022-08-11T05:17:43;10.50;;;4.50;;
41141;SDS011;26882;0.000;0.000;2022-08-11T05:20:32;10.20;;;4.20;;
41141;SDS011;26882;0.000;0.000;2022-08-11T05:23:28;11.30;;;4.30;;
41141;SDS011;26882;0.000;0.000;2022-08-11T05:26:16;10.40;;;4.50;;
41141;SDS011;26882;0.000;0.000;2022-08-11T05:29:22;9.00;;;4.60;;
41141;SDS011;26882;0.000;0.000;2022-08-11T05:32:14;9.40;;;4.30;;
41141;SDS011;26882;0.000;0.000;2022-08-11T05:35:05;10.00;;;4.60;;
41141;SDS011;26882;0.000;0.000;2022-08-11T05:37:42;10.00;;;5.00;;
41141;SDS011;26882;0.000;0.000;2022-08-11T05:40:30;9.10;;;4.90;;
41141;SDS011;26882;0.000;0.000;2022-08-11T05:43:19;8.50;;;4.60;;
41141;SDS011;26882;0.000;0.000;2022-08-11T05:46:09;10.60;;;4.70;;
41141;SDS011;26882;0.000;0.000;2022-08-11T05:49:00;10.50;;;5.20;;
41141;SDS011;26882;0.000;0.000;2022-08-11T05:51:49;10.70;;;5.10;;
41141;SDS011;26882;0.000;0.000;2022-08-11T05:54:37;9.80;;;5.00;;
41141;SDS011;26882;0.000;0.000;2022-08-11T05:57:28;9.60;;;5.30;;
41141;SDS011;26882;0.000;0.000;2022-08-11T06:00:02;11.10;;;5.40;;
41141;SDS011;26882;0.000;0.000;2022-08-11T06:02:42;12.30;;;5.10;;
41141;SDS011;26882;0.000;0.000;2022-08-11T06:05:13;11.00;;;6.10;;
41141;SDS011;26882;0.000;0.000;2022-08-11T06:07:45;9.50;;;5.50;;
41141;SDS011;26882;0.000;0.000;2022-08-11T06:10:28;11.20;;;5.70;;
41141;SDS011;26882;0.000;0.000;2022-08-11T06:12:59;9.20;;;5.30;;
41141;SDS011;26882;0.000;0.000;2022-08-11T06:15:32;11.00;;;5.40;;
41141;SDS011;26882;0.000;0.000;2022-08-11T06:18:03;10.20;;;5.60;;
41141;SDS011;26882;0.000;0.000;2022-08-11T06:20:34;10.50;;;4.90;;
41141;SDS011;26882;0.000;0.000;2022-08-11T06:23:17;9.80;;;4.90;;
41141;SDS011;26882;0.000;0.000;2022-08-11T06:25:52;10.80;;;5.00;;
41141;SDS011;26882;0.000;0.000;2022-08-11T06:28:29;10.30;;;5.10;;
41141;SDS011;26882;0.000;0.000;2022-08-11T06:31:00;9.40;;;4.50;;
41141;SDS011;26882;0.000;0.000;2022-08-11T06:33:35;10.30;;;5.20;;
41141;SDS011;26882;0.000;0.000;2022-08-11T06:36:14;9.20;;;4.80;;
41141;SDS011;26882;0.000;0.000;2022-08-11T06:38:55;9.80;;;4.80;;
41141;SDS011;26882;0.000;0.000;2022-08-11T06:41:32;6.40;;;4.10;;
41141;SDS011;26882;0.000;0.000;2022-08-11T06:44:15;8.70;;;4.50;;
41141;SDS011;26882;0.000;0.000;2022-08-11T06:46:51;8.50;;;4.10;;
41141;SDS011;26882;0.000;0.000;2022-08-11T06:49:32;7.00;;;3.40;;
41141;SDS011;26882;0.000;0.000;2022-08-11T06:52:26;8.40;;;3.60;;
41141;SDS011;26882;0.000;0.000;2022-08-11T06:55:00;7.90;;;3.90;;
41141;SDS011;26882;0.000;0.000;2022-08-11T06:57:36;8.30;;;3.50;;
41141;SDS011;26882;0.000;0.000;2022-08-11T07:00:25;8.00;;;4.10;;
41141;SDS011;26882;0.000;0.000;2022-08-11T07:03:02;6.90;;;3.30;;
41141;SDS011;26882;0.000;0.000;2022-08-11T07:05:46;8.20;;;3.70;;
41141;SDS011;26882;0.000;0.000;2022-08-11T07:08:33;9.00;;;4.10;;
41141;SDS011;26882;0.000;0.000;2022-08-11T07:11:40;6.30;;;3.70;;
41141;SDS011;26882;0.000;0.000;2022-08-11T07:14:32;6.30;;;2.80;;
41141;SDS011;26882;0.000;0.000;2022-08-11T07:17:23;7.70;;;3.00;;
41141;SDS011;26882;0.000;0.000;2022-08-11T07:19:56;5.90;;;3.10;;
41141;SDS011;26882;0.000;0.000;2022-08-11T07:22:48;8.00;;;3.50;;
41141;SDS011;26882;0.000;0.000;2022-08-11T07:25:40;6.20;;;2.80;;
41141;SDS011;26882;0.000;0.000;2022-08-11T07:28:30;9.70;;;2.70;;
41141;SDS011;26882;0.000;0.000;2022-08-11T07:31:23;5.70;;;2.80;;
41141;SDS011;26882;0.000;0.000;2022-08-11T07:34:01;6.60;;;2.70;;
41141;SDS011;26882;0.000;0.000;2022-08-11T07:36:35;6.70;;;2.30;;
41141;SDS011;26882;0.000;0.000;2022-08-11T07:39:09;7.70;;;2.90;;
41141;SDS011;26882;0.000;0.000;2022-08-11T07:41:44;5.90;;;2.20;;
41141;SDS011;26882;0.000;0.000;2022-08-11T07:44:16;6.10;;;2.30;;
41141;SDS011;26882;0.000;0.000;2022-08-11T07:46:49;6.10;;;2.70;;
41141;SDS011;26882;0.000;0.000;2022-08-11T07:49:38;8.30;;;2.60;;
41141;SDS011;26882;0.000;0.000;2022-08-11T07:52:29;5.70;;;2.60;;
41141;SDS011;26882;0.000;0.000;2022-08-11T07:55:03;5.20;;;2.40;;
41141;SDS011;26882;0.000;0.000;2022-08-11T07:57:34;5.40;;;2.60;;
41141;SDS011;26882;0.000;0.000;2022-08-11T08:00:23;7.00;;;2.50;;
41141;SDS011;26882;0.000;0.000;2022-08-11T08:03:12;6.60;;;2.50;;
41141;SDS011;26882;0.000;0.000;2022-08-11T08:06:00;8.10;;;3.00;;
41141;SDS011;26882;0.000;0.000;2022-08-11T08:08:48;8.80;;;2.90;;
41141;SDS011;26882;0.000;0.000;2022-08-11T08:11:36;8.80;;;2.90;;
41141;SDS011;26882;0.000;0.000;2022-08-11T08:14:25;7.80;;;2.70;;
41141;SDS011;26882;0.000;0.000;2022-08-11T08:17:13;7.90;;;2.80;;
41141;SDS011;26882;0.000;0.000;2022-08-11T08:20:02;8.40;;;3.10;;
41141;SDS011;26882;0.000;0.000;2022-08-11T08:22:32;5.70;;;2.40;;
41141;SDS011;26882;0.000;0.000;2022-08-11T08:25:06;8.80;;;3.00;;
41141;SDS011;26882;0.000;0.000;2022-08-11T08:27:37;7.80;;;2.40;;
41141;SDS011;26882;0.000;0.000;2022-08-11T08:30:10;5.70;;;2.60;;
41141;SDS011;26882;0.000;0.000;2022-08-11T08:33:02;7.40;;;2.80;;
41141;SDS011;26882;0.000;0.000;2022-08-11T08:35:35;7.10;;;2.80;;
41141;SDS011;26882;0.000;0.000;2022-08-11T08:38:09;5.80;;;2.40;;
41141;SDS011;26882;0.000;0.000;2022-08-11T08:40:42;6.70;;;2.70;;
41141;SDS011;26882;0.000;0.000;2022-08-11T08:45:46;6.60;;;2.70;;
41141;SDS011;26882;0.000;0.000;2022-08-11T08:48:17;6.40;;;2.60;;
41141;SDS011;26882;0.000;0.000;2022-08-11T08:50:51;7.20;;;2.70;;
41141;SDS011;26882;0.000;0.000;2022-08-11T08:53:43;10.50;;;2.60;;
41141;SDS011;26882;0.000;0.000;2022-08-11T08:56:15;6.70;;;2.80;;
41141;SDS011;26882;0.000;0.000;2022-08-11T08:58:47;5.30;;;2.40;;
41141;SDS011;26882;0.000;0.000;2022-08-11T09:01:18;6.60;;;2.30;;
41141;SDS011;26882;0.000;0.000;2022-08-11T09:03:50;7.10;;;2.40;;
41141;SDS011;26882;0.000;0.000;2022-08-11T09:06:21;7.30;;;2.80;;
41141;SDS011;26882;0.000;0.000;2022-08-11T09:08:51;8.50;;;2.50;;
41141;SDS011;26882;0.000;0.000;2022-08-11T09:11:23;7.40;;;2.40;;
41141;SDS011;26882;0.000;0.000;2022-08-11T09:14:11;8.30;;;2.30;;
41141;SDS011;26882;0.000;0.000;2022-08-11T09:16:42;9.60;;;2.60;;
41141;SDS011;26882;0.000;0.000;2022-08-11T09:19:16;7.70;;;2.50;;
41141;SDS011;26882;0.000;0.000;2022-08-11T09:21:49;7.40;;;2.70;;
41141;SDS011;26882;0.000;0.000;2022-08-11T09:24:40;6.40;;;2.50;;
41141;SDS011;26882;0.000;0.000;2022-08-11T09:27:28;6.20;;;2.60;;
41141;SDS011;26882;0.000;0.000;2022-08-11T09:29:59;6.30;;;2.60;;
41141;SDS011;26882;0.000;0.000;2022-08-11T09:32:29;6.90;;;2.40;;
41141;SDS011;26882;0.000;0.000;2022-08-11T09:35:02;7.60;;;2.30;;
41141;SDS011;26882;0.000;0.000;2022-08-11T09:37:33;7.50;;;2.60;;
41141;SDS011;26882;0.000;0.000;2022-08-11T09:40:33;8.40;;;2.50;;
41141;SDS011;26882;0.000;0.000;2022-08-11T09:43:05;6.90;;;2.30;;
41141;SDS011;26882;0.000;0.000;2022-08-11T09:45:58;6.30;;;2.50;;
41141;SDS011;26882;0.000;0.000;2022-08-11T09:48:30;8.50;;;2.90;;
41141;SDS011;26882;0.000;0.000;2022-08-11T09:51:01;7.00;;;2.30;;
41141;SDS011;26882;0.000;0.000;2022-08-11T09:53:34;7.80;;;2.40;;
41141;SDS011;26882;0.000;0.000;2022-08-11T09:56:07;7.20;;;2.50;;
41141;SDS011;26882;0.000;0.000;2022-08-11T09:58:57;5.70;;;2.30;;
41141;SDS011;26882;0.000;0.000;2022-08-11T10:01:31;5.50;;;2.20;;
41141;SDS011;26882;0.000;0.000;2022-08-11T10:04:06;7.30;;;2.20;;
41141;SDS011;26882;0.000;0.000;2022-08-11T10:06:38;8.10;;;2.50;;
41141;SDS011;26882;0.000;0.000;2022-08-11T10:09:27;8.50;;;2.40;;
41141;SDS011;26882;0.000;0.000;2022-08-11T10:11:59;7.00;;;2.20;;
41141;SDS011;26882;0.000;0.000;2022-08-11T10:14:31;6.40;;;1.80;;
41141;SDS011;26882;0.000;0.000;2022-08-11T10:17:20;7.80;;;2.00;;
41141;SDS011;26882;0.000;0.000;2022-08-11T10:19:52;7.40;;;2.50;;
41141;SDS011;26882;0.000;0.000;2022-08-11T10:22:25;7.00;;;2.30;;
41141;SDS011;26882;0.000;0.000;2022-08-11T10:25:13;6.80;;;1.70;;
41141;SDS011;26882;0.000;0.000;2022-08-11T10:28:06;6.20;;;1.90;;
41141;SDS011;26882;0.000;0.000;2022-08-11T10:30:39;4.90;;;1.90;;
41141;SDS011;26882;0.000;0.000;2022-08-11T10:33:27;7.60;;;2.00;;
41141;SDS011;26882;0.000;0.000;2022-08-11T10:36:17;6.70;;;1.90;;
41141;SDS011;26882;0.000;0.000;2022-08-11T10:38:49;4.40;;;1.60;;
41141;SDS011;26882;0.000;0.000;2022-08-11T10:41:20;6.30;;;1.70;;
41141;SDS011;26882;0.000;0.000;2022-08-11T10:44:09;5.20;;;1.80;;
41141;SDS011;26882;0.000;0.000;2022-08-11T10:46:40;6.80;;;2.10;;
41141;SDS011;26882;0.000;0.000;2022-08-11T10:49:28;6.90;;;1.90;;
41141;SDS011;26882;0.000;0.000;2022-08-11T10:52:00;3.70;;;1.90;;
41141;SDS011;26882;0.000;0.000;2022-08-11T10:54:49;3.10;;;1.50;;
41141;SDS011;26882;0.000;0.000;2022-08-11T10:57:37;4.20;;;1.60;;
41141;SDS011;26882;0.000;0.000;2022-08-11T11:00:26;4.80;;;1.50;;
41141;SDS011;26882;0.000;0.000;2022-08-11T11:02:57;6.40;;;1.70;;
41141;SDS011;26882;0.000;0.000;2022-08-11T11:05:29;5.80;;;1.60;;
41141;SDS011;26882;0.000;0.000;2022-08-11T11:08:08;4.50;;;1.70;;
41141;SDS011;26882;0.000;0.000;2022-08-11T11:11:00;4.30;;;1.60;;
41141;SDS011;26882;0.000;0.000;2022-08-11T11:13:31;3.80;;;1.50;;
41141;SDS011;26882;0.000;0.000;2022-08-11T11:16:19;5.00;;;1.70;;
41141;SDS011;26882;0.000;0.000;2022-08-11T11:19:07;3.90;;;1.40;;
41141;SDS011;26882;0.000;0.000;2022-08-11T11:21:40;3.40;;;1.70;;
41141;SDS011;26882;0.000;0.000;2022-08-11T11:24:14;4.30;;;1.70;;
41141;SDS011;26882;0.000;0.000;2022-08-11T11:26:51;4.50;;;1.90;;
41141;SDS011;26882;0.000;0.000;2022-08-11T11:29:35;4.80;;;1.70;;
41141;SDS011;26882;0.000;0.000;2022-08-11T11:32:29;7.00;;;2.10;;
41141;SDS011;26882;0.000;0.000;2022-08-11T11:38:04;5.90;;;1.90;;
41141;SDS011;26882;0.000;0.000;2022-08-11T11:40:38;77.70;;;31.60;;
41141;SDS011;26882;0.000;0.000;2022-08-11T11:43:09;48.00;;;20.10;;
41141;SDS011;26882;0.000;0.000;2022-08-11T11:45:41;48.50;;;19.00;;
41141;SDS011;26882;0.000;0.000;2022-08-11T11:48:11;39.90;;;17.20;;
41141;SDS011;26882;0.000;0.000;2022-08-11T11:50:42;39.90;;;16.90;;
41141;SDS011;26882;0.000;0.000;2022-08-11T11:53:13;37.60;;;15.30;;
41141;SDS011;26882;0.000;0.000;2022-08-11T11:55:44;37.10;;;15.40;;
41141;SDS011;26882;0.000;0.000;2022-08-11T11:58:15;35.30;;;14.40;;
41141;SDS011;26882;0.000;0.000;2022-08-11T12:01:04;30.60;;;12.90;;
41141;SDS011;26882;0.000;0.000;2022-08-11T12:03:53;26.10;;;12.70;;
41141;SDS011;26882;0.000;0.000;2022-08-11T12:06:25;25.40;;;10.80;;
41141;SDS011;26882;0.000;0.000;2022-08-11T12:08:56;23.10;;;10.50;;
41141;SDS011;26882;0.000;0.000;2022-08-11T12:11:28;19.70;;;9.30;;
41141;SDS011;26882;0.000;0.000;2022-08-11T12:14:19;19.00;;;9.00;;
41141;SDS011;26882;0.000;0.000;2022-08-11T12:19:24;17.30;;;7.70;;
41141;SDS011;26882;0.000;0.000;2022-08-11T12:21:57;17.00;;;6.70;;
41141;SDS011;26882;0.000;0.000;2022-08-11T12:24:45;16.50;;;7.00;;
41141;SDS011;26882;0.000;0.000;2022-08-11T12:27:43;13.60;;;6.60;;
41141;SDS011;26882;0.000;0.000;2022-08-11T12:30:16;14.20;;;5.70;;
41141;SDS011;26882;0.000;0.000;2022-08-11T12:32:48;12.30;;;5.40;;
41141;SDS011;26882;0.000;0.000;2022-08-11T12:35:19;13.60;;;5.30;;
41141;SDS011;26882;0.000;0.000;2022-08-11T12:37:50;10.30;;;4.80;;
41141;SDS011;26882;0.000;0.000;2022-08-11T12:40:24;12.00;;;5.10;;
41141;SDS011;26882;0.000;0.000;2022-08-11T12:43:16;10.90;;;4.30;;
41141;SDS011;26882;0.000;0.000;2022-08-11T12:46:08;10.70;;;4.30;;
41141;SDS011;26882;0.000;0.000;2022-08-11T12:48:43;9.70;;;4.10;;
41141;SDS011;26882;0.000;0.000;2022-08-11T12:51:35;10.10;;;4.60;;
41141;SDS011;26882;0.000;0.000;2022-08-11T12:54:26;7.70;;;3.50;;
41141;SDS011;26882;0.000;0.000;2022-08-11T12:57:01;9.00;;;3.50;;
41141;SDS011;26882;0.000;0.000;2022-08-11T12:59:50;7.90;;;3.30;;
41141;SDS011;26882;0.000;0.000;2022-08-11T13:02:40;7.40;;;2.80;;
41141;SDS011;26882;0.000;0.000;2022-08-11T13:05:30;7.20;;;2.70;;
41141;SDS011;26882;0.000;0.000;2022-08-11T13:08:02;7.40;;;3.20;;
41141;SDS011;26882;0.000;0.000;2022-08-11T13:10:34;6.60;;;2.80;;
41141;SDS011;26882;0.000;0.000;2022-08-11T13:13:24;6.40;;;2.30;;
41141;SDS011;26882;0.000;0.000;2022-08-11T13:15:55;6.60;;;2.60;;
41141;SDS011;26882;0.000;0.000;2022-08-11T13:18:26;5.10;;;2.20;;
41141;SDS011;26882;0.000;0.000;2022-08-11T13:20:57;5.40;;;2.40;;
41141;SDS011;26882;0.000;0.000;2022-08-11T13:23:28;5.00;;;1.80;;
41141;SDS011;26882;0.000;0.000;2022-08-11T13:25:58;5.10;;;1.90;;
41141;SDS011;26882;0.000;0.000;2022-08-11T13:28:30;7.00;;;2.20;;
41141;SDS011;26882;0.000;0.000;2022-08-11T13:31:04;6.10;;;2.10;;
41141;SDS011;26882;0.000;0.000;2022-08-11T13:33:45;4.50;;;1.80;;
41141;SDS011;26882;0.000;0.000;2022-08-11T13:36:19;5.90;;;2.10;;
41141;SDS011;26882;0.000;0.000;2022-08-11T13:38:50;5.50;;;1.70;;
41141;SDS011;26882;0.000;0.000;2022-08-11T13:41:22;3.70;;;1.50;;
41141;SDS011;26882;0.000;0.000;2022-08-11T13:44:10;3.90;;;1.60;;
41141;SDS011;26882;0.000;0.000;2022-08-11T13:46:42;6.00;;;1.90;;
41141;SDS011;26882;0.000;0.000;2022-08-11T13:49:13;3.60;;;1.60;;
41141;SDS011;26882;0.000;0.000;2022-08-11T13:51:45;5.00;;;1.70;;
41141;SDS011;26882;0.000;0.000;2022-08-11T13:54:18;5.50;;;1.60;;
41141;SDS011;26882;0.000;0.000;2022-08-11T13:56:51;4.60;;;1.60;;
41141;SDS011;26882;0.000;0.000;2022-08-11T13:59:23;4.10;;;1.30;;
41141;SDS011;26882;0.000;0.000;2022-08-11T14:01:57;3.70;;;1.40;;
41141;SDS011;26882;0.000;0.000;2022-08-11T14:04:31;3.20;;;1.20;;
41141;SDS011;26882;0.000;0.000;2022-08-11T14:07:05;2.70;;;1.40;;
41141;SDS011;26882;0.000;0.000;2022-08-11T14:09:38;4.80;;;1.80;;
41141;SDS011;26882;0.000;0.000;2022-08-11T14:15:04;2.80;;;1.50;;
41141;SDS011;26882;0.000;0.000;2022-08-11T14:17:36;2.80;;;1.40;;
41141;SDS011;26882;0.000;0.000;2022-08-11T14:20:09;5.40;;;1.50;;
41141;SDS011;26882;0.000;0.000;2022-08-11T14:22:41;3.20;;;1.40;;
41141;SDS011;26882;0.000;0.000;2022-08-11T14:25:13;4.60;;;1.60;;
41141;SDS011;26882;0.000;0.000;2022-08-11T14:27:45;3.60;;;1.30;;
41141;SDS011;26882;0.000;0.000;2022-08-11T14:30:17;3.50;;;1.50;;
41141;SDS011;26882;0.000;0.000;2022-08-11T14:33:05;3.00;;;1.50;;
41141;SDS011;26882;0.000;0.000;2022-08-11T14:35:35;2.60;;;1.30;;
41141;SDS011;26882;0.000;0.000;2022-08-11T14:38:06;2.70;;;1.30;;
41141;SDS011;26882;0.000;0.000;2022-08-11T14:40:38;4.00;;;1.40;;
41141;SDS011;26882;0.000;0.000;2022-08-11T14:43:35;2.80;;;1.40;;
41141;SDS011;26882;0.000;0.000;2022-08-11T14:46:23;3.40;;;1.30;;
41141;SDS011;26882;0.000;0.000;2022-08-11T14:49:12;2.50;;;1.30;;
41141;SDS011;26882;0.000;0.000;2022-08-11T14:51:44;2.90;;;1.20;;
41141;SDS011;26882;0.000;0.000;2022-08-11T14:54:15;2.90;;;1.40;;
41141;SDS011;26882;0.000;0.000;2022-08-11T14:57:03;3.00;;;1.40;;
41141;SDS011;26882;0.000;0.000;2022-08-11T14:59:34;3.50;;;1.20;;
41141;SDS011;26882;0.000;0.000;2022-08-11T15:02:05;2.70;;;1.30;;
41141;SDS011;26882;0.000;0.000;2022-08-11T15:04:50;3.50;;;1.40;;
41141;SDS011;26882;0.000;0.000;2022-08-11T15:07:21;2.20;;;1.00;;
41141;SDS011;26882;0.000;0.000;2022-08-11T15:09:59;3.10;;;1.20;;
41141;SDS011;26882;0.000;0.000;2022-08-11T15:15:00;2.80;;;1.20;;
41141;SDS011;26882;0.000;0.000;2022-08-11T15:17:48;2.80;;;1.10;;
41141;SDS011;26882;0.000;0.000;2022-08-11T15:20:20;2.70;;;1.10;;
41141;SDS011;26882;0.000;0.000;2022-08-11T15:23:09;3.60;;;1.30;;
41141;SDS011;26882;0.000;0.000;2022-08-11T15:25:59;3.00;;;1.20;;
41141;SDS011;26882;0.000;0.000;2022-08-11T15:28:33;3.60;;;1.50;;
41141;SDS011;26882;0.000;0.000;2022-08-11T15:31:24;2.90;;;1.10;;
41141;SDS011;26882;0.000;0.000;2022-08-11T15:34:16;3.30;;;1.10;;
41141;SDS011;26882;0.000;0.000;2022-08-11T15:37:08;3.20;;;1.30;;
41141;SDS011;26882;0.000;0.000;2022-08-11T15:40:00;2.40;;;1.30;;
41141;SDS011;26882;0.000;0.000;2022-08-11T15:42:54;1.70;;;0.90;;
41141;SDS011;26882;0.000;0.000;2022-08-11T15:45:45;3.10;;;1.20;;
41141;SDS011;26882;0.000;0.000;2022-08-11T15:48:25;3.70;;;1.60;;
41141;SDS011;26882;0.000;0.000;2022-08-11T15:51:01;2.60;;;1.20;;
41141;SDS011;26882;0.000;0.000;2022-08-11T15:53:39;2.30;;;1.10;;
41141;SDS011;26882;0.000;0.000;2022-08-11T15:56:10;4.40;;;1.30;;
41141;SDS011;26882;0.000;0.000;2022-08-11T15:58:44;2.70;;;1.20;;
41141;SDS011;26882;0.000;0.000;2022-08-11T16:01:33;2.10;;;1.20;;
41141;SDS011;26882;0.000;0.000;2022-08-11T16:04:23;3.40;;;1.40;;
41141;SDS011;26882;0.000;0.000;2022-08-11T16:06:56;3.40;;;1.10;;
41141;SDS011;26882;0.000;0.000;2022-08-11T16:09:32;2.90;;;1.20;;
41141;SDS011;26882;0.000;0.000;2022-08-11T16:12:07;2.70;;;1.10;;
41141;SDS011;26882;0.000;0.000;2022-08-11T16:14:39;2.20;;;1.00;;
41141;SDS011;26882;0.000;0.000;2022-08-11T16:17:29;3.50;;;1.40;;
41141;SDS011;26882;0.000;0.000;2022-08-11T16:20:01;3.10;;;1.30;;
41141;SDS011;26882;0.000;0.000;2022-08-11T16:22:32;2.60;;;1.10;;
41141;SDS011;26882;0.000;0.000;2022-08-11T16:25:10;2.50;;;1.20;;
41141;SDS011;26882;0.000;0.000;2022-08-11T16:27:44;2.60;;;1.10;;
41141;SDS011;26882;0.000;0.000;2022-08-11T16:30:16;4.50;;;1.20;;
41141;SDS011;26882;0.000;0.000;2022-08-11T16:32:48;3.10;;;1.20;;
41141;SDS011;26882;0.000;0.000;2022-08-11T16:35:22;4.20;;;1.30;;
41141;SDS011;26882;0.000;0.000;2022-08-11T16:38:11;2.90;;;1.30;;
41141;SDS011;26882;0.000;0.000;2022-08-11T16:41:01;2.40;;;1.20;;
41141;SDS011;26882;0.000;0.000;2022-08-11T16:43:37;3.00;;;1.10;;
41141;SDS011;26882;0.000;0.000;2022-08-11T16:46:26;5.10;;;1.30;;
41141;SDS011;26882;0.000;0.000;2022-08-11T16:49:17;3.10;;;1.10;;
41141;SDS011;26882;0.000;0.000;2022-08-11T16:51:50;2.70;;;1.20;;
41141;SDS011;26882;0.000;0.000;2022-08-11T16:54:21;3.10;;;1.20;;
41141;SDS011;26882;0.000;0.000;2022-08-11T16:56:53;2.60;;;1.10;;
41141;SDS011;26882;0.000;0.000;2022-08-11T16:59:25;3.00;;;1.20;;
41141;SDS011;26882;0.000;0.000;2022-08-11T17:01:58;2.60;;;1.30;;
41141;SDS011;26882;0.000;0.000;2022-08-11T17:04:35;3.30;;;1.30;;
41141;SDS011;26882;0.000;0.000;2022-08-11T17:07:30;3.20;;;1.40;;
41141;SDS011;26882;0.000;0.000;2022-08-11T17:10:25;2.70;;;1.30;;
41141;SDS011;26882;0.000;0.000;2022-08-11T17:13:14;3.00;;;1.20;;
41141;SDS011;26882;0.000;0.000;2022-08-11T17:15:47;2.90;;;1.20;;
41141;SDS011;26882;0.000;0.000;2022-08-11T17:18:45;2.50;;;1.30;;
41141;SDS011;26882;0.000;0.000;2022-08-11T17:21:20;3.50;;;1.20;;